createdAt,value
2022-11-19T00:01:51.209Z,-0.17
2022-11-19T00:04:23.587Z,-0.15
2022-11-19T00:06:55.266Z,-0.18
2022-11-19T00:09:26.999Z,-0.20
2022-11-19T00:12:17.089Z,-0.16
2022-11-19T00:14:48.737Z,-0.07
2022-11-19T00:17:20.424Z,0.00
2022-11-19T00:19:52.001Z,0.02
2022-11-19T00:22:23.544Z,0.07
2022-11-19T00:24:55.207Z,0.13
2022-11-19T00:27:26.736Z,0.17
2022-11-19T00:29:58.365Z,0.20
2022-11-19T00:32:31.138Z,0.24
2022-11-19T00:35:02.846Z,0.22
2022-11-19T00:37:34.496Z,0.09
2022-11-19T00:40:08.906Z,0.08
2022-11-19T00:43:00.548Z,0.08
2022-11-19T00:45:32.277Z,0.11
2022-11-19T00:48:04.148Z,0.14
2022-11-19T00:50:35.841Z,0.16
2022-11-19T00:53:10.002Z,0.09
2022-11-19T00:55:41.684Z,0.08
2022-11-19T00:58:13.886Z,0.02
2022-11-19T01:00:46.246Z,0.03
2022-11-19T01:03:17.855Z,-0.05
2022-11-19T01:05:49.490Z,0.02
2022-11-19T01:08:21.268Z,0.06
2022-11-19T01:10:52.944Z,0.09
2022-11-19T01:13:36.792Z,0.11
2022-11-19T01:16:14.287Z,0.00
2022-11-19T01:18:48.142Z,-0.18
2022-11-19T01:21:22.833Z,-0.19
2022-11-19T01:23:54.502Z,-0.18
2022-11-19T01:26:27.650Z,-0.24
2022-11-19T01:28:59.305Z,-0.24
2022-11-19T01:31:31.121Z,-0.12
2022-11-19T01:34:02.920Z,-0.01
2022-11-19T01:36:34.477Z,0.04
2022-11-19T01:39:06.134Z,-0.05
2022-11-19T01:41:37.842Z,-0.09
2022-11-19T01:45:04.834Z,-0.11
2022-11-19T01:47:36.626Z,-0.09
2022-11-19T01:50:08.566Z,-0.14
2022-11-19T01:52:40.743Z,-0.10
2022-11-19T01:55:13.078Z,-0.08
2022-11-19T01:57:45.100Z,-0.04
2022-11-19T02:00:17.297Z,-0.07
2022-11-19T02:02:49.443Z,-0.05
2022-11-19T02:05:22.167Z,0.04
2022-11-19T02:07:56.552Z,0.07
2022-11-19T02:11:12.875Z,0.10
2022-11-19T02:13:56.215Z,0.18
2022-11-19T02:16:47.997Z,0.18
2022-11-19T02:19:48.180Z,0.11
2022-11-19T02:22:51.900Z,0.14
2022-11-19T02:25:51.281Z,0.13
2022-11-19T02:28:48.430Z,0.15
2022-11-19T02:31:31.115Z,0.22
2022-11-19T02:34:23.910Z,0.20
2022-11-19T02:37:01.987Z,0.26
2022-11-19T02:39:36.623Z,0.36
2022-11-19T02:42:21.233Z,0.37
2022-11-19T02:44:59.662Z,0.41
2022-11-19T02:47:52.290Z,0.38
2022-11-19T02:50:32.441Z,0.17
2022-11-19T02:53:05.240Z,0.06
2022-11-19T02:55:39.561Z,0.08
2022-11-19T02:58:37.376Z,0.03
2022-11-19T03:01:27.635Z,0.00
2022-11-19T03:04:17.777Z,0.05
2022-11-19T03:06:49.917Z,0.11
2022-11-19T03:09:22.365Z,0.22
2022-11-19T03:12:04.532Z,0.20
2022-11-19T03:15:15.490Z,0.19
2022-11-19T03:17:59.012Z,0.17
2022-11-19T03:20:37.231Z,0.20
2022-11-19T03:23:32.068Z,0.24
2022-11-19T03:26:22.714Z,0.31
2022-11-19T03:28:58.317Z,0.34
2022-11-19T03:31:33.069Z,0.37
2022-11-19T03:34:12.029Z,0.37
2022-11-19T03:36:46.155Z,0.31
2022-11-19T03:39:23.270Z,0.24
2022-11-19T03:41:57.086Z,0.23
2022-11-19T03:44:51.479Z,0.18
2022-11-19T03:47:27.790Z,0.21
2022-11-19T03:50:05.680Z,0.23
2022-11-19T03:52:37.287Z,0.19
2022-11-19T03:55:08.987Z,0.21
2022-11-19T03:57:40.723Z,0.18
2022-11-19T04:00:13.025Z,0.22
2022-11-19T04:02:44.618Z,0.26
2022-11-19T04:05:16.284Z,0.28
2022-11-19T04:07:47.965Z,0.25
2022-11-19T04:10:19.658Z,0.18
2022-11-19T04:12:51.227Z,0.08
2022-11-19T04:15:22.863Z,0.01
2022-11-19T04:17:54.437Z,-0.06
2022-11-19T04:20:26.239Z,-0.06
2022-11-19T04:22:58.372Z,-0.09
2022-11-19T04:25:29.938Z,-0.14
2022-11-19T04:28:01.608Z,-0.08
2022-11-19T04:30:33.244Z,0.03
2022-11-19T04:33:05.124Z,0.05
2022-11-19T04:35:36.689Z,0.12
2022-11-19T04:38:08.315Z,0.08
2022-11-19T04:40:39.888Z,-0.06
2022-11-19T04:43:11.468Z,-0.09
2022-11-19T04:45:44.329Z,-0.12
2022-11-19T04:48:16.247Z,-0.04
2022-11-19T04:50:47.818Z,-0.03
2022-11-19T04:53:19.876Z,-0.01
2022-11-19T04:55:51.631Z,-0.03
2022-11-19T04:58:23.320Z,0.04
2022-11-19T05:00:57.708Z,0.06
2022-11-19T05:03:29.529Z,0.16
2022-11-19T05:06:01.311Z,0.16
2022-11-19T05:08:32.930Z,0.17
2022-11-19T05:11:04.657Z,0.12
2022-11-19T05:13:36.382Z,0.18
2022-11-19T05:16:08.243Z,0.19
2022-11-19T05:18:40.235Z,0.19
2022-11-19T05:21:11.920Z,0.11
2022-11-19T05:23:43.647Z,0.08
2022-11-19T05:26:15.288Z,0.10
2022-11-19T05:28:46.864Z,0.11
2022-11-19T05:31:18.552Z,0.17
2022-11-19T05:33:50.529Z,0.16
2022-11-19T05:36:22.327Z,0.20
2022-11-19T05:38:54.050Z,0.09
2022-11-19T05:41:25.663Z,0.09
2022-11-19T05:43:57.673Z,0.09
2022-11-19T05:46:29.317Z,0.03
2022-11-19T05:49:00.959Z,0.08
2022-11-19T05:51:32.626Z,0.06
2022-11-19T05:54:04.305Z,0.10
2022-11-19T05:56:35.934Z,0.08
2022-11-19T05:59:07.572Z,0.08
2022-11-19T06:01:39.237Z,0.10
2022-11-19T06:04:11.922Z,0.08
2022-11-19T06:06:43.482Z,0.07
2022-11-19T06:09:15.092Z,0.08
2022-11-19T06:11:50.258Z,0.08
2022-11-19T06:14:25.060Z,0.03
2022-11-19T06:16:57.488Z,0.02
2022-11-19T06:19:29.240Z,-0.07
2022-11-19T06:22:00.874Z,-0.09
2022-11-19T06:24:32.520Z,-0.11
2022-11-19T06:27:04.248Z,-0.13
2022-11-19T06:29:35.827Z,-0.14
2022-11-19T06:32:07.381Z,-0.13
2022-11-19T06:34:38.997Z,-0.13
2022-11-19T06:37:10.539Z,-0.11
2022-11-19T06:39:42.930Z,-0.13
2022-11-19T06:42:32.964Z,-0.16
2022-11-19T06:45:13.787Z,-0.28
2022-11-19T06:47:48.486Z,-0.33
2022-11-19T06:50:23.117Z,-0.29
2022-11-19T06:52:54.802Z,-0.24
2022-11-19T06:55:29.203Z,-0.24
2022-11-19T06:58:04.550Z,-0.22
2022-11-19T07:00:36.915Z,-0.23
2022-11-19T07:03:08.542Z,-0.22
2022-11-19T07:05:40.782Z,-0.19
2022-11-19T07:08:12.412Z,-0.18
2022-11-19T07:10:44.004Z,-0.11
2022-11-19T07:13:18.337Z,-0.12
2022-11-19T07:15:50.016Z,-0.24
2022-11-19T07:18:21.624Z,-0.27
2022-11-19T07:20:53.228Z,-0.18
2022-11-19T07:23:25.663Z,-0.11
2022-11-19T07:26:03.333Z,0.03
2022-11-19T07:28:35.067Z,-0.10
2022-11-19T07:31:08.056Z,-0.24
2022-11-19T07:33:39.809Z,-0.22
2022-11-19T07:36:17.006Z,-0.15
2022-11-19T07:38:52.272Z,0.02
2022-11-19T07:41:42.526Z,0.17
2022-11-19T07:44:14.143Z,0.26
2022-11-19T07:46:45.860Z,0.39
2022-11-19T07:49:18.064Z,0.41
2022-11-19T07:51:49.987Z,0.54
2022-11-19T07:54:21.629Z,0.77
2022-11-19T07:56:53.439Z,1.04
2022-11-19T07:59:26.927Z,1.42
2022-11-19T08:01:58.659Z,1.78
2022-11-19T08:04:30.326Z,1.71
2022-11-19T08:07:02.131Z,1.53
2022-11-19T08:09:34.082Z,1.54
2022-11-19T08:12:05.999Z,1.52
2022-11-19T08:14:39.741Z,1.86
2022-11-19T08:17:29.915Z,1.94
2022-11-19T08:20:01.537Z,2.08
2022-11-19T08:22:33.221Z,2.37
2022-11-19T08:25:06.285Z,3.07
2022-11-19T08:27:37.909Z,3.43
2022-11-19T08:30:10.017Z,3.17
2022-11-19T08:32:41.847Z,2.93
2022-11-19T08:35:13.496Z,2.96
2022-11-19T08:37:47.009Z,2.92
2022-11-19T08:40:18.764Z,2.93
2022-11-19T08:43:02.619Z,2.95
2022-11-19T08:45:35.487Z,2.78
2022-11-19T08:48:10.601Z,2.67
2022-11-19T08:50:42.591Z,2.63
2022-11-19T08:53:14.236Z,2.57
2022-11-19T08:55:51.628Z,2.50
2022-11-19T08:58:23.357Z,2.39
2022-11-19T09:00:55.295Z,2.35
2022-11-19T09:03:27.026Z,2.32
2022-11-19T09:05:59.928Z,2.38
2022-11-19T09:08:31.848Z,2.48
2022-11-19T09:11:15.279Z,2.62
2022-11-19T09:13:46.981Z,2.74
2022-11-19T09:16:18.891Z,2.88
2022-11-19T09:18:50.522Z,3.18
2022-11-19T09:21:22.184Z,3.40
2022-11-19T09:23:53.814Z,3.76
2022-11-19T09:26:25.425Z,3.83
2022-11-19T09:28:57.135Z,3.87
2022-11-19T09:31:28.731Z,3.84
2022-11-19T09:34:00.418Z,3.68
2022-11-19T09:36:32.195Z,3.71
2022-11-19T09:39:03.936Z,3.62
2022-11-19T09:42:16.359Z,2.85
2022-11-19T09:45:08.007Z,2.77
2022-11-19T09:47:59.112Z,3.06
2022-11-19T09:50:50.355Z,3.26
2022-11-19T09:53:30.311Z,3.84
2022-11-19T09:56:02.858Z,4.08
2022-11-19T09:58:44.094Z,4.32
2022-11-19T10:01:18.319Z,4.58
2022-11-19T10:03:53.473Z,4.61
2022-11-19T10:06:34.398Z,4.44
2022-11-19T10:09:11.961Z,4.34
2022-11-19T10:12:01.944Z,4.40
2022-11-19T10:14:55.604Z,4.26
2022-11-19T10:17:36.195Z,4.11
2022-11-19T10:20:49.215Z,4.13
2022-11-19T10:23:36.981Z,3.99
2022-11-19T10:26:17.899Z,3.82
2022-11-19T10:28:57.535Z,3.70
2022-11-19T10:31:38.983Z,3.73
2022-11-19T10:34:16.481Z,3.79
2022-11-19T10:36:55.988Z,3.68
2022-11-19T10:39:37.189Z,3.69
2022-11-19T10:42:41.736Z,3.83
2022-11-19T10:45:25.120Z,3.81
2022-11-19T10:48:09.575Z,3.56
2022-11-19T10:50:42.365Z,3.30
2022-11-19T10:53:26.828Z,3.11
2022-11-19T10:56:12.300Z,3.01
2022-11-19T10:58:52.886Z,2.99
2022-11-19T11:01:31.900Z,2.83
2022-11-19T11:04:20.298Z,2.74
2022-11-19T11:06:55.385Z,2.63
2022-11-19T11:09:31.896Z,2.51
2022-11-19T11:12:31.092Z,2.43
2022-11-19T11:15:15.756Z,2.40
2022-11-19T11:17:48.899Z,2.37
2022-11-19T11:20:27.203Z,2.30
2022-11-19T11:23:15.328Z,2.28
2022-11-19T11:25:59.148Z,2.18
2022-11-19T11:28:30.889Z,2.14
2022-11-19T11:31:10.603Z,2.10
2022-11-19T11:33:53.979Z,1.93
2022-11-19T11:36:27.659Z,1.87
2022-11-19T11:39:01.381Z,1.92
2022-11-19T11:44:37.116Z,2.03
2022-11-19T11:47:15.045Z,2.12
2022-11-19T11:49:51.571Z,2.21
2022-11-19T11:52:51.457Z,2.14
2022-11-19T11:55:22.979Z,2.11
2022-11-19T11:58:03.336Z,2.20
2022-11-19T12:00:46.055Z,2.27
2022-11-19T12:03:19.597Z,2.27
2022-11-19T12:06:15.528Z,2.31
2022-11-19T12:08:56.314Z,2.38
2022-11-19T12:11:56.425Z,2.47
2022-11-19T12:14:46.849Z,2.52
2022-11-19T12:17:40.804Z,2.51
2022-11-19T12:20:39.419Z,2.55
2022-11-19T12:23:16.854Z,2.67
2022-11-19T12:26:27.628Z,2.69
2022-11-19T12:29:28.059Z,2.47
2022-11-19T12:32:13.952Z,2.38
2022-11-19T12:35:30.108Z,2.36
2022-11-19T12:38:30.046Z,2.27
2022-11-19T12:41:21.262Z,2.12
2022-11-19T12:44:21.989Z,2.08
2022-11-19T12:47:31.944Z,2.01
2022-11-19T12:50:11.382Z,2.01
2022-11-19T12:52:52.065Z,2.09
2022-11-19T12:55:45.629Z,2.15
2022-11-19T12:58:25.583Z,2.20
2022-11-19T13:01:00.791Z,2.25
2022-11-19T13:03:50.556Z,2.28
2022-11-19T13:06:32.089Z,2.32
2022-11-19T13:09:30.753Z,2.32
2022-11-19T13:12:16.435Z,2.23
2022-11-19T13:14:55.255Z,2.27
2022-11-19T13:17:32.795Z,2.32
2022-11-19T13:20:13.494Z,2.35
2022-11-19T13:22:49.731Z,2.39
2022-11-19T13:25:30.696Z,2.34
2022-11-19T13:28:07.082Z,2.31
2022-11-19T13:30:50.590Z,2.24
2022-11-19T13:33:32.224Z,2.16
2022-11-19T13:36:03.925Z,2.09
2022-11-19T13:38:49.335Z,2.02
2022-11-19T13:41:31.838Z,2.05
2022-11-19T13:44:23.297Z,2.14
2022-11-19T13:46:59.446Z,2.22
2022-11-19T13:49:42.982Z,2.24
2022-11-19T13:52:30.198Z,2.27
2022-11-19T13:55:31.163Z,2.23
2022-11-19T13:58:14.309Z,2.25
2022-11-19T14:01:07.930Z,2.20
2022-11-19T14:03:39.979Z,2.18
2022-11-19T14:06:29.530Z,2.23
2022-11-19T14:09:19.804Z,2.23
2022-11-19T14:12:11.801Z,2.17
2022-11-19T14:15:23.747Z,2.10
2022-11-19T14:18:47.966Z,2.02
2022-11-19T14:21:43.586Z,1.92
2022-11-19T14:24:47.940Z,1.86
2022-11-19T14:27:37.206Z,1.87
2022-11-19T14:30:12.338Z,1.85
2022-11-19T14:32:49.673Z,1.62
2022-11-19T14:35:27.183Z,1.53
2022-11-19T14:38:13.931Z,1.45
2022-11-19T14:41:03.681Z,1.27
2022-11-19T14:44:11.435Z,1.21
2022-11-19T14:46:46.780Z,1.20
2022-11-19T14:49:24.325Z,1.21
2022-11-19T14:52:00.421Z,1.31
2022-11-19T14:54:38.823Z,1.23
2022-11-19T14:57:35.638Z,1.11
2022-11-19T15:00:28.954Z,1.08
2022-11-19T15:03:05.944Z,1.14
2022-11-19T15:05:43.742Z,1.00
2022-11-19T15:08:18.481Z,0.93
2022-11-19T15:11:05.370Z,0.96
2022-11-19T15:13:40.704Z,0.94
2022-11-19T15:16:25.402Z,0.82
2022-11-19T15:19:08.853Z,0.69
2022-11-19T15:22:08.376Z,0.64
2022-11-19T15:24:42.948Z,0.69
2022-11-19T15:27:49.110Z,0.76
2022-11-19T15:30:24.335Z,0.74
2022-11-19T15:33:22.834Z,0.69
2022-11-19T15:36:47.040Z,0.67
2022-11-19T15:39:39.409Z,0.64
2022-11-19T15:42:16.517Z,0.67
2022-11-19T15:45:00.663Z,0.68
2022-11-19T15:47:44.104Z,0.72
2022-11-19T15:50:36.757Z,0.74
2022-11-19T15:53:21.082Z,0.73
2022-11-19T15:55:58.540Z,0.69
2022-11-19T15:58:37.124Z,0.65
2022-11-19T16:01:13.897Z,0.65
2022-11-19T16:03:47.543Z,0.68
2022-11-19T16:06:22.680Z,0.61
2022-11-19T16:08:56.660Z,0.62
2022-11-19T16:11:53.568Z,0.51
2022-11-19T16:14:48.602Z,0.44
2022-11-19T16:17:34.930Z,0.42
2022-11-19T16:20:10.070Z,0.43
2022-11-19T16:22:56.370Z,0.43
2022-11-19T16:25:37.595Z,0.34
2022-11-19T16:28:27.773Z,0.21
2022-11-19T16:31:06.006Z,0.12
2022-11-19T16:33:40.283Z,0.11
2022-11-19T16:36:17.093Z,0.10
2022-11-19T16:38:51.569Z,0.08
2022-11-19T16:41:43.348Z,0.07
2022-11-19T16:44:21.622Z,0.09
2022-11-19T16:46:53.733Z,0.10
2022-11-19T16:49:44.031Z,0.14
2022-11-19T16:52:36.971Z,0.17
2022-11-19T16:55:19.774Z,0.22
2022-11-19T16:58:00.531Z,0.24
2022-11-19T17:00:38.240Z,0.21
2022-11-19T17:03:41.783Z,0.18
2022-11-19T17:06:24.175Z,0.21
2022-11-19T17:09:02.035Z,0.26
2022-11-19T17:12:04.360Z,0.25
2022-11-19T17:14:35.948Z,0.21
2022-11-19T17:17:27.079Z,0.20
2022-11-19T17:19:59.219Z,0.07
2022-11-19T17:22:34.576Z,0.07
2022-11-19T17:25:13.506Z,0.09
2022-11-19T17:27:51.431Z,0.13
2022-11-19T17:30:26.588Z,0.20
2022-11-19T17:33:01.566Z,0.24
2022-11-19T17:35:41.522Z,0.26
2022-11-19T17:38:27.096Z,0.30
2022-11-19T17:41:01.414Z,0.32
2022-11-19T17:43:56.640Z,0.35
2022-11-19T17:46:29.915Z,0.39
2022-11-19T17:49:03.631Z,0.39
2022-11-19T17:51:37.236Z,0.41
2022-11-19T17:54:12.904Z,0.44
2022-11-19T17:56:44.542Z,0.46
2022-11-19T17:59:16.227Z,0.43
2022-11-19T18:01:47.916Z,0.43
2022-11-19T18:04:19.977Z,0.41
2022-11-19T18:06:51.836Z,0.37
2022-11-19T18:09:23.781Z,0.38
2022-11-19T18:11:55.786Z,0.37
2022-11-19T18:14:28.035Z,0.36
2022-11-19T18:16:59.829Z,0.33
2022-11-19T18:19:31.612Z,0.25
2022-11-19T18:22:03.265Z,0.23
2022-11-19T18:24:34.908Z,0.20
2022-11-19T18:27:06.597Z,0.18
2022-11-19T18:29:38.286Z,0.18
2022-11-19T18:32:17.089Z,0.18
2022-11-19T18:34:51.287Z,0.17
2022-11-19T18:37:23.177Z,0.16
2022-11-19T18:39:55.260Z,0.17
2022-11-19T18:42:28.125Z,0.16
2022-11-19T18:44:59.800Z,0.08
2022-11-19T18:47:37.521Z,0.08
2022-11-19T18:50:12.308Z,0.07
2022-11-19T18:52:43.875Z,0.05
2022-11-19T18:55:15.530Z,0.04
2022-11-19T18:57:49.778Z,0.02
2022-11-19T19:00:22.753Z,-0.03
2022-11-19T19:02:54.424Z,-0.05
2022-11-19T19:05:26.083Z,-0.05
2022-11-19T19:07:57.756Z,-0.08
2022-11-19T19:10:29.748Z,-0.11
2022-11-19T19:13:01.327Z,-0.16
2022-11-19T19:15:32.896Z,-0.19
2022-11-19T19:18:07.761Z,-0.20
2022-11-19T19:20:39.673Z,-0.23
2022-11-19T19:23:11.269Z,-0.24
2022-11-19T19:25:42.910Z,-0.26
2022-11-19T19:28:14.554Z,-0.28
2022-11-19T19:30:48.340Z,-0.31
2022-11-19T19:33:20.088Z,-0.36
2022-11-19T19:35:51.776Z,-0.42
2022-11-19T19:38:23.859Z,-0.45
2022-11-19T19:41:04.113Z,-0.49
2022-11-19T19:43:35.759Z,-0.53
2022-11-19T19:46:13.490Z,-0.52
2022-11-19T19:48:47.122Z,-0.54
2022-11-19T19:51:23.162Z,-0.56
2022-11-19T19:53:55.847Z,-0.58
2022-11-19T19:56:31.582Z,-0.61
2022-11-19T19:59:03.233Z,-0.62
2022-11-19T20:01:36.266Z,-0.66
2022-11-19T20:04:10.577Z,-0.69
2022-11-19T20:06:46.019Z,-0.73
2022-11-19T20:09:17.672Z,-0.75
2022-11-19T20:11:49.342Z,-0.74
2022-11-19T20:14:24.264Z,-0.76
2022-11-19T20:16:55.973Z,-0.77
2022-11-19T20:19:27.610Z,-0.79
2022-11-19T20:21:59.325Z,-0.84
2022-11-19T20:24:31.036Z,-0.91
2022-11-19T20:27:02.644Z,-0.98
2022-11-19T20:29:34.254Z,-1.03
2022-11-19T20:32:08.726Z,-1.04
2022-11-19T20:34:40.397Z,-1.04
2022-11-19T20:37:11.967Z,-1.07
2022-11-19T20:39:43.638Z,-1.08
2022-11-19T20:42:35.895Z,-1.08
2022-11-19T20:45:08.294Z,-1.06
2022-11-19T20:47:39.944Z,-1.03
2022-11-19T20:50:11.610Z,-1.04
2022-11-19T20:52:43.395Z,-1.02
2022-11-19T20:55:15.029Z,-1.02
2022-11-19T20:57:46.604Z,-1.02
2022-11-19T21:00:18.868Z,-1.05
2022-11-19T21:02:51.892Z,-1.07
2022-11-19T21:05:23.692Z,-1.13
2022-11-19T21:07:55.341Z,-1.13
2022-11-19T21:10:27.092Z,-1.21
2022-11-19T21:13:01.493Z,-1.34
2022-11-19T21:15:37.063Z,-1.41
2022-11-19T21:18:08.648Z,-1.49
2022-11-19T21:20:40.545Z,-1.54
2022-11-19T21:23:12.184Z,-1.59
2022-11-19T21:25:43.805Z,-1.60
2022-11-19T21:28:15.489Z,-1.58
2022-11-19T21:30:52.056Z,-1.55
2022-11-19T21:33:26.500Z,-1.63
2022-11-19T21:35:59.451Z,-1.65
2022-11-19T21:38:32.239Z,-1.66
2022-11-19T21:41:04.488Z,-1.66
2022-11-19T21:43:37.304Z,-1.65
2022-11-19T21:46:08.972Z,-1.63
2022-11-19T21:48:40.611Z,-1.68
2022-11-19T21:51:12.490Z,-1.72
2022-11-19T21:53:44.092Z,-1.87
2022-11-19T21:56:15.698Z,-1.86
2022-11-19T21:58:50.536Z,-1.88
2022-11-19T22:01:22.403Z,-1.86
2022-11-19T22:03:54.075Z,-1.88
2022-11-19T22:06:25.727Z,-1.89
2022-11-19T22:09:00.325Z,-1.87
2022-11-19T22:11:32.387Z,-1.85
2022-11-19T22:14:06.535Z,-1.86
2022-11-19T22:16:40.162Z,-1.82
2022-11-19T22:19:12.292Z,-1.82
2022-11-19T22:21:43.876Z,-1.79
2022-11-19T22:24:15.572Z,-1.80
2022-11-19T22:26:47.985Z,-1.80
2022-11-19T22:29:19.806Z,-1.81
2022-11-19T22:31:51.596Z,-1.82
2022-11-19T22:34:23.187Z,-1.82
2022-11-19T22:36:54.735Z,-1.82
2022-11-19T22:39:26.348Z,-1.81
2022-11-19T22:41:58.025Z,-1.81
2022-11-19T22:44:29.623Z,-1.85
2022-11-19T22:47:01.601Z,-1.83
2022-11-19T22:49:33.514Z,-1.82
2022-11-19T22:52:05.115Z,-1.87
2022-11-19T22:54:41.405Z,-1.85
2022-11-19T22:57:13.440Z,-1.82
2022-11-19T22:59:45.081Z,-1.79
2022-11-19T23:02:19.421Z,-1.75
2022-11-19T23:04:51.099Z,-1.72
2022-11-19T23:07:22.719Z,-1.69
2022-11-19T23:09:54.364Z,-1.65
2022-11-19T23:12:44.591Z,-1.61
2022-11-19T23:15:16.305Z,-1.59
2022-11-19T23:17:47.876Z,-1.59
2022-11-19T23:20:20.485Z,-1.57
2022-11-19T23:22:52.122Z,-1.58
2022-11-19T23:25:23.750Z,-1.60
2022-11-19T23:27:57.717Z,-1.59
2022-11-19T23:30:29.372Z,-1.56
2022-11-19T23:33:00.972Z,-1.54
2022-11-19T23:35:35.674Z,-1.56
2022-11-19T23:38:07.306Z,-1.58
2022-11-19T23:40:38.959Z,-1.57
2022-11-19T23:43:12.920Z,-1.57
2022-11-19T23:45:44.587Z,-1.58
2022-11-19T23:48:17.424Z,-1.57
2022-11-19T23:50:50.092Z,-1.54
2022-11-19T23:53:21.674Z,-1.57
2022-11-19T23:55:53.257Z,-1.53
2022-11-19T23:58:24.806Z,-1.49
